createdAt,value
2023-03-26T00:00:31.017Z,96189.50
2023-03-26T00:05:33.944Z,96193.81
2023-03-26T00:10:39.905Z,96158.72
2023-03-26T00:15:42.735Z,96166.28
2023-03-26T00:20:45.649Z,96180.59
2023-03-26T00:25:50.932Z,96168.72
2023-03-26T00:30:59.135Z,96166.03
2023-03-26T00:36:04.335Z,96150.59
2023-03-26T00:41:17.883Z,96134.94
2023-03-26T00:46:21.124Z,96147.91
2023-03-26T00:51:24.048Z,96150.06
2023-03-26T00:56:28.232Z,96134.41
2023-03-26T01:01:32.423Z,96116.56
2023-03-26T01:06:36.580Z,96126.03
2023-03-26T01:11:41.166Z,96123.59
2023-03-26T01:16:46.278Z,96113.06
2023-03-26T01:21:49.147Z,96099.28
2023-03-26T01:27:13.300Z,96094.13
2023-03-26T01:32:25.437Z,96091.19
2023-03-26T01:37:34.317Z,96074.97
2023-03-26T01:42:42.854Z,96070.09
2023-03-26T01:47:46.477Z,96070.66
2023-03-26T01:52:49.417Z,96084.41
2023-03-26T01:58:01.112Z,96068.22
2023-03-26T02:03:18.125Z,96055.50
2023-03-26T02:08:25.225Z,96044.69
2023-03-26T02:13:29.382Z,96041.75
2023-03-26T02:18:37.109Z,96034.72
2023-03-26T02:23:40.695Z,96027.16
2023-03-26T02:28:44.954Z,96028.75
2023-03-26T02:33:49.496Z,96032.53
2023-03-26T02:38:52.584Z,96011.22
2023-03-26T02:43:56.741Z,96000.97
2023-03-26T02:49:00.132Z,95998.78
2023-03-26T02:54:03.378Z,95981.53
2023-03-26T02:59:07.566Z,95958.53
2023-03-26T03:04:10.463Z,95946.13
2023-03-26T03:09:13.577Z,95939.13
2023-03-26T03:14:17.725Z,95924.00
2023-03-26T03:19:20.613Z,95918.59
2023-03-26T03:24:23.540Z,95909.69
2023-03-26T03:29:28.246Z,95908.34
2023-03-26T03:34:31.103Z,95905.63
2023-03-26T03:39:34.049Z,95905.63
2023-03-26T03:44:40.695Z,95889.72
2023-03-26T03:49:43.567Z,95887.03
2023-03-26T03:54:46.519Z,95885.38
2023-03-26T03:59:50.726Z,95872.97
2023-03-26T04:04:54.379Z,95870.28
2023-03-26T04:09:57.731Z,95861.94
2023-03-26T04:15:01.905Z,95859.78
2023-03-26T04:20:08.844Z,95864.09
2023-03-26T04:25:13.193Z,95860.03
2023-03-26T04:30:20.535Z,95868.41
2023-03-26T04:35:23.778Z,95872.47
2023-03-26T04:40:26.717Z,95856.78
2023-03-26T04:45:31.322Z,95847.63
2023-03-26T04:50:34.360Z,95823.59
2023-03-26T04:55:42.113Z,95799.84
2023-03-26T05:00:47.468Z,95778.56
2023-03-26T05:05:50.544Z,95776.38
2023-03-26T05:10:53.824Z,95774.75
2023-03-26T05:15:58.365Z,95767.75
2023-03-26T05:21:01.386Z,95747.75
2023-03-26T05:26:04.304Z,95748.56
2023-03-26T05:31:09.108Z,95753.69
2023-03-26T05:36:15.346Z,95763.13
2023-03-26T05:41:18.503Z,95775.84
2023-03-26T05:46:23.338Z,95778.00
2023-03-26T05:51:26.327Z,95799.88
2023-03-26T05:56:29.185Z,95802.28
2023-03-26T06:01:33.387Z,95788.28
2023-03-26T06:06:36.269Z,95796.66
2023-03-26T06:11:39.129Z,95779.34
2023-03-26T06:16:43.264Z,95766.94
2023-03-26T06:21:46.173Z,95760.47
2023-03-26T06:26:48.993Z,95759.44
2023-03-26T06:31:53.160Z,95775.06
2023-03-26T06:36:55.981Z,95781.53
2023-03-26T06:41:58.805Z,95778.31
2023-03-26T06:47:03.026Z,95787.72
2023-03-26T06:52:06.067Z,95763.19
2023-03-26T06:57:08.967Z,95754.28
2023-03-26T07:02:13.307Z,95766.13
2023-03-26T07:07:16.215Z,95762.13
2023-03-26T07:12:19.126Z,95765.34
2023-03-26T07:17:23.274Z,95764.78
2023-03-26T07:22:26.968Z,95762.06
2023-03-26T07:27:37.661Z,95753.72
2023-03-26T07:32:50.465Z,95746.97
2023-03-26T07:38:04.394Z,95769.13
2023-03-26T07:43:13.198Z,95768.81
2023-03-26T07:48:19.848Z,95755.09
2023-03-26T07:53:23.730Z,95760.47
2023-03-26T07:58:52.290Z,95773.72
2023-03-26T08:04:23.921Z,95745.09
2023-03-26T08:09:34.943Z,95738.63
2023-03-26T08:14:49.591Z,95732.94
2023-03-26T08:20:02.241Z,95722.94
2023-03-26T08:25:27.594Z,95730.78
2023-03-26T08:30:31.042Z,95727.53
2023-03-26T08:35:35.487Z,95736.66
2023-03-26T08:41:01.695Z,95725.84
2023-03-26T08:46:26.080Z,95732.06
2023-03-26T08:51:43.366Z,95739.31
2023-03-26T08:56:52.773Z,95750.94
2023-03-26T09:02:20.633Z,95753.34
2023-03-26T09:08:00.838Z,95730.94
2023-03-26T09:13:19.166Z,95716.69
2023-03-26T09:18:38.442Z,95715.59
2023-03-26T09:24:31.399Z,95732.06
2023-03-26T09:30:09.509Z,95737.19
2023-03-26T09:35:15.734Z,95712.09
2023-03-26T09:40:22.631Z,95696.72
2023-03-26T09:45:46.793Z,95711.53
2023-03-26T09:50:58.023Z,95711.31
2023-03-26T09:56:08.395Z,95705.91
2023-03-26T10:01:15.939Z,95716.63
2023-03-26T10:06:37.111Z,95714.50
2023-03-26T10:11:59.635Z,95697.47
2023-03-26T10:17:10.544Z,95685.84
2023-03-26T10:22:25.615Z,95698.28
2023-03-26T10:27:38.742Z,95686.69
2023-03-26T10:32:48.280Z,95693.16
2023-03-26T10:38:03.538Z,95690.72
2023-03-26T10:43:33.552Z,95688.81
2023-03-26T10:48:51.834Z,95683.44
2023-03-26T10:53:55.966Z,95682.56
2023-03-26T10:59:04.392Z,95676.66
2023-03-26T11:04:16.346Z,95661.25
2023-03-26T11:09:30.032Z,95659.28
2023-03-26T11:14:41.147Z,95649.03
2023-03-26T11:19:53.134Z,95643.16
2023-03-26T11:25:06.848Z,95644.50
2023-03-26T11:30:19.937Z,95633.38
2023-03-26T11:35:40.279Z,95633.09
2023-03-26T11:40:50.684Z,95622.03
2023-03-26T11:45:55.077Z,95619.09
2023-03-26T11:51:01.787Z,95604.84
2023-03-26T11:56:10.987Z,95589.66
2023-03-26T12:01:17.204Z,95569.66
2023-03-26T12:06:25.604Z,95581.06
2023-03-26T12:11:35.246Z,95568.66
2023-03-26T12:16:39.889Z,95563.28
2023-03-26T12:21:47.557Z,95543.88
2023-03-26T12:26:58.040Z,95568.72
2023-03-26T12:32:15.183Z,95622.19
2023-03-26T12:37:36.537Z,95672.41
2023-03-26T12:44:49.495Z,95628.16
2023-03-26T12:48:06.808Z,95641.09
2023-03-26T12:53:22.679Z,95617.00
2023-03-26T12:58:44.878Z,95608.59
2023-03-26T13:04:08.310Z,95619.69
2023-03-26T13:09:22.775Z,95603.72
2023-03-26T13:14:39.317Z,95616.63
2023-03-26T13:19:52.583Z,95569.63
2023-03-26T13:25:00.983Z,95565.59
2023-03-26T13:30:07.825Z,95567.75
2023-03-26T13:35:22.282Z,95562.06
2023-03-26T13:40:29.854Z,95560.47
2023-03-26T13:45:43.852Z,95574.53
2023-03-26T13:50:54.908Z,95574.00
2023-03-26T13:55:59.281Z,95592.31
2023-03-26T14:01:05.667Z,95609.31
2023-03-26T14:06:25.816Z,95616.63
2023-03-26T14:11:36.437Z,95625.53
2023-03-26T14:16:42.313Z,95619.88
2023-03-26T14:22:03.683Z,95642.03
2023-03-26T14:27:18.484Z,95645.25
2023-03-26T14:32:32.205Z,95631.47
2023-03-26T14:37:54.882Z,95645.47
2023-03-26T14:43:14.979Z,95642.50
2023-03-26T14:48:39.123Z,95656.88
2023-03-26T14:53:46.489Z,95657.03
2023-03-26T14:59:18.666Z,95661.41
2023-03-26T15:04:51.962Z,95654.94
2023-03-26T15:10:28.481Z,95660.94
2023-03-26T15:15:45.434Z,95650.84
2023-03-26T15:21:29.968Z,95630.34
2023-03-26T15:27:03.725Z,95635.94
2023-03-26T15:32:30.234Z,95631.47
2023-03-26T15:37:52.635Z,95642.28
2023-03-26T15:43:04.572Z,95658.25
2023-03-26T15:48:19.242Z,95651.22
2023-03-26T15:53:34.928Z,95644.72
2023-03-26T15:58:46.693Z,95635.53
2023-03-26T16:03:57.023Z,95618.25
2023-03-26T16:09:16.998Z,95606.91
2023-03-26T16:14:23.959Z,95599.59
2023-03-26T16:19:49.465Z,95589.34
2023-03-26T16:25:28.281Z,95579.88
2023-03-26T16:30:33.720Z,95578.09
2023-03-26T16:35:41.617Z,95579.63
2023-03-26T16:40:55.738Z,95574.31
2023-03-26T16:46:07.476Z,95538.16
2023-03-26T16:51:17.143Z,95535.78
2023-03-26T16:56:29.194Z,95536.34
2023-03-26T17:01:44.414Z,95524.19
2023-03-26T17:07:14.019Z,95531.78
2023-03-26T17:12:20.298Z,95543.72
2023-03-26T17:17:37.324Z,95541.28
2023-03-26T17:22:43.514Z,95528.91
2023-03-26T17:27:50.021Z,95534.28
2023-03-26T17:32:58.602Z,95525.09
2023-03-26T17:38:01.794Z,95527.81
2023-03-26T17:43:09.887Z,95527.81
2023-03-26T17:48:18.245Z,95509.47
2023-03-26T17:53:25.352Z,95510.00
2023-03-26T17:58:31.289Z,95492.47
2023-03-26T18:03:36.973Z,95494.91
2023-03-26T18:08:50.532Z,95486.25
2023-03-26T18:14:26.989Z,95481.97
2023-03-26T18:19:32.036Z,95474.69
2023-03-26T18:24:39.536Z,95486.53
2023-03-26T18:29:44.898Z,95477.66
2023-03-26T18:34:52.411Z,95481.13
2023-03-26T18:40:00.745Z,95490.34
2023-03-26T18:45:08.400Z,95480.63
2023-03-26T18:50:17.563Z,95479.53
2023-03-26T18:55:20.433Z,95477.41
2023-03-26T19:00:25.414Z,95480.91
2023-03-26T19:05:32.093Z,95471.22
2023-03-26T19:10:35.108Z,95462.31
2023-03-26T19:15:38.006Z,95467.72
2023-03-26T19:20:44.580Z,95457.97
2023-03-26T19:25:48.901Z,95467.19
2023-03-26T19:30:55.450Z,95470.69
2023-03-26T19:36:04.789Z,95468.28
2023-03-26T19:41:07.624Z,95472.56
2023-03-26T19:46:14.240Z,95471.56
2023-03-26T19:51:23.929Z,95471.25
2023-03-26T19:56:27.314Z,95475.53
2023-03-26T20:01:31.778Z,95474.25
2023-03-26T20:06:43.318Z,95476.13
2023-03-26T20:11:47.076Z,95482.63
2023-03-26T20:16:49.927Z,95478.00
2023-03-26T20:21:54.624Z,95483.72
2023-03-26T20:26:57.489Z,95494.50
2023-03-26T20:32:00.775Z,95493.69
2023-03-26T20:37:05.075Z,95489.38
2023-03-26T20:42:08.355Z,95500.47
2023-03-26T20:47:11.437Z,95492.09
2023-03-26T20:52:16.085Z,95497.75
2023-03-26T20:57:18.911Z,95513.94
2023-03-26T21:02:21.935Z,95526.34
2023-03-26T21:07:26.192Z,95540.94
2023-03-26T21:12:31.382Z,95557.13
2023-03-26T21:17:34.813Z,95579.81
2023-03-26T21:22:43.495Z,95592.19
2023-03-26T21:27:55.468Z,95603.25
2023-03-26T21:32:59.580Z,95611.34
2023-03-26T21:38:04.913Z,95624.06
2023-03-26T21:43:08.448Z,95632.16
2023-03-26T21:48:12.044Z,95622.72
2023-03-26T21:53:16.866Z,95622.72
2023-03-26T21:58:32.690Z,95639.72
2023-03-26T22:03:39.174Z,95646.75
2023-03-26T22:08:43.834Z,95647.00
2023-03-26T22:13:46.877Z,95660.50
2023-03-26T22:18:49.736Z,95669.69
2023-03-26T22:23:54.050Z,95674.25
2023-03-26T22:28:57.211Z,95683.44
2023-03-26T22:34:00.112Z,95686.16
2023-03-26T22:39:05.570Z,95700.72
2023-03-26T22:44:19.709Z,95717.97
2023-03-26T22:49:26.090Z,95732.00
2023-03-26T22:54:30.315Z,95719.88
2023-03-26T22:59:33.251Z,95742.25
2023-03-26T23:04:37.572Z,95736.34
2023-03-26T23:09:41.848Z,95735.25
2023-03-26T23:14:44.638Z,95745.50
2023-03-26T23:19:47.555Z,95755.72
2023-03-26T23:24:51.732Z,95768.94
2023-03-26T23:29:55.359Z,95774.09
2023-03-26T23:34:58.207Z,95788.94
2023-03-26T23:40:07.312Z,95801.34
2023-03-26T23:45:10.912Z,95822.66
2023-03-26T23:50:14.521Z,95831.84
2023-03-26T23:55:18.985Z,95837.22
